createdAt,value
2019-02-02T00:12:44.778Z,96081.04
2019-02-02T00:18:08.088Z,96082.13
2019-02-02T00:23:12.469Z,96075.14
2019-02-02T00:34:25.070Z,96091.81
2019-02-02T00:39:29.361Z,96089.78
2019-02-02T00:44:45.191Z,96100.66
2019-02-02T00:54:59.273Z,96081.09
2019-02-02T01:00:22.591Z,96075.22
2019-02-02T01:05:27.085Z,96089.88
2019-02-02T01:11:11.608Z,96088.34
2019-02-02T01:16:15.910Z,96095.55
2019-02-02T01:21:20.142Z,96099.72
2019-02-02T01:26:43.445Z,96095.70
2019-02-02T01:32:06.995Z,96094.26
2019-02-02T01:37:30.303Z,96097.85
2019-02-02T01:42:34.584Z,96101.84
2019-02-02T01:47:58.758Z,96098.82
2019-02-02T01:53:03.012Z,96093.30
2019-02-02T02:08:46.412Z,96082.86
2019-02-02T02:13:50.646Z,96086.02
2019-02-02T02:29:35.170Z,96103.67
2019-02-02T02:34:39.435Z,96107.62
2019-02-02T02:39:43.678Z,96120.47
2019-02-02T02:45:07.329Z,96108.50
2019-02-02T03:00:54.768Z,96145.22
2019-02-02T03:05:59.009Z,96159.20
2019-02-02T03:11:42.593Z,96160.98
2019-02-02T03:27:06.419Z,96147.69
2019-02-02T03:32:10.642Z,96137.45
2019-02-02T03:37:33.944Z,96117.62
2019-02-02T03:43:17.528Z,96110.62
2019-02-02T03:48:21.771Z,96104.61
2019-02-02T03:53:41.018Z,96105.58
2019-02-02T03:58:44.085Z,96106.42
2019-02-02T04:04:27.774Z,96109.52
2019-02-02T04:09:51.074Z,96109.59
2019-02-02T04:14:55.305Z,96130.88
2019-02-02T04:30:58.674Z,96150.42
2019-02-02T04:36:02.999Z,96153.94
2019-02-02T04:51:46.558Z,96156.70
2019-02-02T04:56:50.838Z,96159.91
2019-02-02T05:01:55.175Z,96163.00
2019-02-02T05:06:59.404Z,96166.32
2019-02-02T05:17:32.589Z,96162.80
2019-02-02T05:22:36.815Z,96163.16
2019-02-02T05:27:41.084Z,96156.78
2019-02-02T05:32:45.431Z,96160.53
2019-02-02T05:53:18.598Z,96172.46
2019-02-02T06:08:42.566Z,96188.09
2019-02-02T06:13:46.803Z,96201.69
2019-02-02T06:19:10.111Z,96206.94
2019-02-02T06:29:24.521Z,96224.36
2019-02-02T06:34:47.818Z,96247.65
2019-02-02T06:39:52.053Z,96247.07
2019-02-02T06:44:56.347Z,96254.83
2019-02-02T07:00:41.019Z,96282.03
2019-02-02T07:05:45.321Z,96278.91
2019-02-02T07:15:59.329Z,96300.48
2019-02-02T07:26:32.200Z,96302.27
2019-02-02T07:31:36.429Z,96309.94
2019-02-02T07:47:00.245Z,96330.97
2019-02-02T07:52:23.566Z,96341.39
2019-02-02T08:02:38.121Z,96358.20
2019-02-02T08:07:42.357Z,96354.93
2019-02-02T08:33:45.412Z,96378.17
2019-02-02T08:38:50.793Z,96391.02
2019-02-02T08:43:55.093Z,96405.55
2019-02-02T08:48:59.345Z,96400.34
2019-02-02T08:59:15.394Z,96419.45
2019-02-02T09:04:31.773Z,96425.98
2019-02-02T09:09:35.989Z,96426.25
2019-02-02T09:14:40.222Z,96426.98
2019-02-02T09:25:53.368Z,96444.75
2019-02-02T09:30:57.638Z,96445.48
2019-02-02T09:36:01.872Z,96448.23
2019-02-02T09:41:25.182Z,96451.33
2019-02-02T09:46:29.424Z,96462.81
2019-02-02T09:51:52.723Z,96463.20
2019-02-02T10:02:27.161Z,96472.42
2019-02-02T10:07:45.580Z,96478.84
2019-02-02T10:12:49.859Z,96479.89
2019-02-02T10:17:54.084Z,96493.89
2019-02-02T10:23:17.467Z,96502.91
2019-02-02T10:28:21.711Z,96505.05
2019-02-02T10:33:45.006Z,96512.63
2019-02-02T10:49:28.816Z,96526.41
2019-02-02T11:04:53.558Z,96557.59
2019-02-02T11:10:10.333Z,96561.66
2019-02-02T11:15:54.723Z,96563.48
2019-02-02T11:20:58.987Z,96571.48
2019-02-02T11:31:32.158Z,96570.86
2019-02-02T11:46:56.982Z,96590.06
2019-02-02T11:52:01.304Z,96592.27
2019-02-02T11:57:05.717Z,96606.28
2019-02-02T12:02:14.629Z,96600.00
2019-02-02T12:12:37.374Z,96619.96
2019-02-02T12:22:51.407Z,96631.54
2019-02-02T12:33:25.997Z,96638.91
2019-02-02T12:38:49.775Z,96644.64
2019-02-02T12:49:04.103Z,96665.03
2019-02-02T12:54:08.334Z,96675.64
2019-02-02T13:04:21.901Z,96672.86
2019-02-02T13:14:47.282Z,96679.50
2019-02-02T13:25:01.135Z,96697.18
2019-02-02T13:30:46.134Z,96698.30
2019-02-02T13:36:30.171Z,96693.92
2019-02-02T13:41:34.411Z,96705.94
2019-02-02T13:46:58.023Z,96708.03
2019-02-02T13:52:02.252Z,96718.66
2019-02-02T14:02:35.899Z,96727.64
2019-02-02T14:07:40.138Z,96739.77
2019-02-02T14:12:44.709Z,96747.48
2019-02-02T14:18:01.066Z,96755.06
2019-02-02T14:23:44.805Z,96739.22
2019-02-02T14:28:49.384Z,96730.38
2019-02-02T14:39:22.724Z,96747.75
2019-02-02T14:56:05.551Z,96767.99
2019-02-02T15:01:28.847Z,96786.72
2019-02-02T15:06:33.123Z,96792.68
2019-02-02T15:17:06.489Z,96817.80
2019-02-02T15:22:22.848Z,96823.11
2019-02-02T15:27:27.146Z,96826.89
2019-02-02T15:32:31.441Z,96834.36
2019-02-02T15:37:36.110Z,96854.58
2019-02-02T15:42:59.490Z,96871.10
2019-02-02T15:48:23.144Z,96875.55
2019-02-02T15:53:27.377Z,96883.31
2019-02-02T15:58:52.345Z,96888.63
2019-02-02T16:04:36.450Z,96896.81
2019-02-02T16:09:40.718Z,96914.92
2019-02-02T16:15:04.450Z,96924.30
2019-02-02T16:20:49.934Z,96926.94
2019-02-02T16:25:54.253Z,96935.45
2019-02-02T16:31:17.585Z,96947.09
2019-02-02T16:36:40.891Z,96955.61
2019-02-02T16:42:04.285Z,96972.48
2019-02-02T16:47:27.630Z,96989.49
2019-02-02T16:58:41.457Z,97029.70
2019-02-02T17:14:44.313Z,97054.75
2019-02-02T17:20:07.672Z,97055.70
2019-02-02T17:25:52.156Z,97064.09
2019-02-02T17:31:15.453Z,97071.38
2019-02-02T17:42:07.839Z,97101.53
2019-02-02T17:47:12.067Z,97106.78
2019-02-02T18:03:07.037Z,97133.00
2019-02-02T18:08:11.299Z,97140.38
2019-02-02T18:13:15.539Z,97146.38
2019-02-02T18:24:08.344Z,97158.66
2019-02-02T18:29:12.581Z,97161.19
2019-02-02T18:34:16.863Z,97167.24
2019-02-02T18:39:21.105Z,97181.48
2019-02-02T18:44:44.410Z,97190.42
2019-02-02T18:56:24.028Z,97209.23
2019-02-02T19:06:59.350Z,97227.71
2019-02-02T19:12:03.923Z,97228.66
2019-02-02T19:17:10.538Z,97232.34
2019-02-02T19:22:14.787Z,97228.04
2019-02-02T19:32:47.411Z,97228.22
2019-02-02T19:38:10.895Z,97246.62
2019-02-02T19:48:25.152Z,97264.03
2019-02-02T19:53:31.833Z,97281.21
2019-02-02T19:58:35.458Z,97293.13
2019-02-02T20:03:39.745Z,97305.61
2019-02-02T20:08:43.983Z,97327.73
2019-02-02T20:18:58.367Z,97338.09
2019-02-02T20:29:12.470Z,97353.88
2019-02-02T20:34:16.706Z,97362.55
2019-02-02T20:44:31.027Z,97372.58
2019-02-02T20:49:54.423Z,97392.12
2019-02-02T21:00:50.346Z,97419.68
2019-02-02T21:06:14.189Z,97419.80
2019-02-02T21:16:47.896Z,97445.45
2019-02-02T21:27:02.097Z,97449.23
2019-02-02T21:32:06.706Z,97457.56
2019-02-02T21:37:11.250Z,97473.44
2019-02-02T21:47:44.916Z,97495.46
2019-02-02T21:53:28.581Z,97510.02
2019-02-02T21:58:52.150Z,97537.84
2019-02-02T22:03:56.818Z,97547.14
2019-02-02T22:09:01.122Z,97563.24
2019-02-02T22:14:44.784Z,97571.31
2019-02-02T22:25:18.739Z,97597.41
2019-02-02T22:31:03.437Z,97598.22
2019-02-02T22:36:07.715Z,97603.41
2019-02-02T22:46:40.996Z,97602.93
2019-02-02T22:51:45.295Z,97605.47
2019-02-02T22:57:08.597Z,97603.98
2019-02-02T23:08:21.291Z,97619.45
2019-02-02T23:14:03.767Z,97618.33
2019-02-02T23:19:09.730Z,97628.26
2019-02-02T23:24:33.039Z,97624.70
2019-02-02T23:29:56.385Z,97637.81
2019-02-02T23:45:38.918Z,97661.43
2019-02-02T23:50:43.163Z,97666.86
2019-02-02T23:55:47.414Z,97673.72
